Terminal Aerodrome Forecast
Issued by NWS

Home | Current Version | Previous Version | Text Only | Print | Product List | Glossary On
Versions: 1 2 3 4 5 6 7 8 9 10 11 12 13 14 15 16 17 18 19 20 21 22 23 24 25 26 27 28 29 30
000
FTUS44 KFWD 270301 AAA
TAFAFW
TAF AMD
KAFW 270301Z 2703/2724 18015KT P6SM -SHRA VCTS BKN040CB
      TEMPO 2703/2705 27030KT 4SM -TSRA
     FM270700 15018KT P6SM VCSH OVC015
     FM271500 17015KT P6SM OVC025
     FM272100 17015G25KT P6SM VCTS OVC030CB=

USA.gov is the U.S. government's official web portal to all federal, state and local government web resources and services.